SVW25 TXKF-LPLA
Flight info
| Callsign | SVW25 |
|---|---|
| Flight time | N/A |
| Altitude | 37000 |
| Route | BORNN1 BALOO DCT 35N060W 37N055W 38N050W/M090F390 39N045W 40N040W 40N035W DCT FRS DCT LM |
| Aircraft | C750/M-SBDE3FGHRWXY/S |
Departure
| Time | 2026-04-16 08:52 |
|---|---|
| Airport | L.F. Wade International Airport (TXKF) |
Arrival
| Time | N/A |
|---|---|
| Airport | Lajes Airport (LPLA) |
| Time | Latitude | Longitude | Altitude | Speed | Heading |
|---|---|---|---|---|---|
| 2026-04-16 08:42 | 32.36833 | -64.68681 | 16 ft | 0 kts | 187° |
| 2026-04-16 08:47 | 32.36826 | -64.68682 | 16 ft | 1 kts | 192° |
| 2026-04-16 08:48 | 32.36819 | -64.68688 | 19 ft | 3 kts | 218° |
| 2026-04-16 08:48 | 32.36801 | -64.68725 | 17 ft | 6 kts | 230° |
| 2026-04-16 08:48 | 32.36786 | -64.68735 | 18 ft | 0 kts | 205° |
| 2026-04-16 08:49 | 32.36769 | -64.68752 | 20 ft | 5 kts | 223° |
| 2026-04-16 08:49 | 32.36759 | -64.68780 | 24 ft | 5 kts | 255° |
| 2026-04-16 08:50 | 32.36693 | -64.68945 | 23 ft | 0 kts | 245° |
| 2026-04-16 08:50 | 32.36685 | -64.68965 | 23 ft | 6 kts | 245° |
| 2026-04-16 08:50 | 32.36653 | -64.69039 | 24 ft | 13 kts | 226° |
| 2026-04-16 08:50 | 32.36601 | -64.69019 | 22 ft | 5 kts | 119° |
| 2026-04-16 08:51 | 32.36601 | -64.69013 | 22 ft | 0 kts | 99° |
| 2026-04-16 08:51 | 32.36580 | -64.68881 | 24 ft | 51 kts | 101° |
| 2026-04-16 08:51 | 32.36448 | -64.68088 | 24 ft | 138 kts | 101° |
| 2026-04-16 08:52 | 32.36230 | -64.66861 | 252 ft | 160 kts | 100° |
| 2026-04-16 08:52 | 32.35999 | -64.65566 | 978 ft | 154 kts | 100° |
| 2026-04-16 08:52 | 32.35776 | -64.64308 | 1448 ft | 168 kts | 98° |
| 2026-04-16 08:52 | 32.35541 | -64.62826 | 1653 ft | 199 kts | 98° |
| 2026-04-16 08:53 | 32.35245 | -64.61073 | 2015 ft | 229 kts | 100° |
| 2026-04-16 08:53 | 32.34909 | -64.59154 | 2391 ft | 255 kts | 101° |
| 2026-04-16 08:53 | 32.34894 | -64.57028 | 3025 ft | 262 kts | 75° |
| 2026-04-16 08:53 | 32.35832 | -64.55111 | 3777 ft | 269 kts | 47° |
| 2026-04-16 08:54 | 32.37183 | -64.53563 | 4589 ft | 273 kts | 43° |
| 2026-04-16 08:54 | 32.38568 | -64.52031 | 5330 ft | 279 kts | 43° |
| 2026-04-16 08:54 | 32.39968 | -64.50435 | 6175 ft | 281 kts | 44° |
| 2026-04-16 08:54 | 32.41374 | -64.48815 | 6986 ft | 284 kts | 44° |
| 2026-04-16 08:55 | 32.42805 | -64.47181 | 7776 ft | 287 kts | 43° |
| 2026-04-16 08:55 | 32.44274 | -64.45509 | 8658 ft | 290 kts | 43° |
| 2026-04-16 08:55 | 32.45735 | -64.43840 | 9493 ft | 294 kts | 43° |
| 2026-04-16 08:55 | 32.47195 | -64.42170 | 10250 ft | 297 kts | 43° |
| 2026-04-16 08:56 | 32.48723 | -64.40423 | 10525 ft | 318 kts | 43° |
| 2026-04-16 08:56 | 32.50405 | -64.38503 | 10544 ft | 345 kts | 43° |
| 2026-04-16 08:56 | 32.52157 | -64.36495 | 10726 ft | 362 kts | 43° |
| 2026-04-16 08:56 | 32.53961 | -64.34424 | 11433 ft | 361 kts | 43° |
| 2026-04-16 08:57 | 32.55781 | -64.32340 | 11992 ft | 366 kts | 43° |
| 2026-04-16 08:57 | 32.57610 | -64.30245 | 12600 ft | 368 kts | 43° |
| 2026-04-16 08:57 | 32.59456 | -64.28125 | 13167 ft | 372 kts | 43° |
| 2026-04-16 08:57 | 32.61323 | -64.25979 | 13780 ft | 375 kts | 43° |
| 2026-04-16 08:58 | 32.63207 | -64.23815 | 14308 ft | 378 kts | 43° |
| 2026-04-16 08:58 | 32.65094 | -64.21647 | 14882 ft | 379 kts | 43° |
| 2026-04-16 08:58 | 32.66995 | -64.19460 | 15433 ft | 381 kts | 43° |
| 2026-04-16 08:58 | 32.68902 | -64.17263 | 15981 ft | 383 kts | 43° |
| 2026-04-16 08:59 | 32.70820 | -64.15054 | 16546 ft | 385 kts | 43° |
| 2026-04-16 08:59 | 32.72744 | -64.12837 | 17101 ft | 387 kts | 42° |
| 2026-04-16 08:59 | 32.74684 | -64.10599 | 17698 ft | 389 kts | 43° |
| 2026-04-16 08:59 | 32.76635 | -64.08348 | 18299 ft | 392 kts | 42° |
| 2026-04-16 09:00 | 32.78591 | -64.06088 | 18844 ft | 394 kts | 42° |
| 2026-04-16 09:00 | 32.80566 | -64.03806 | 19373 ft | 397 kts | 42° |
| 2026-04-16 09:00 | 32.82554 | -64.01508 | 19912 ft | 400 kts | 42° |
| 2026-04-16 09:00 | 32.84549 | -63.99199 | 20457 ft | 402 kts | 42° |
| 2026-04-16 09:01 | 32.88592 | -63.94518 | 21547 ft | 408 kts | 42° |
| 2026-04-16 09:01 | 32.90629 | -63.92156 | 22076 ft | 411 kts | 42° |
| 2026-04-16 09:01 | 32.92697 | -63.89754 | 22623 ft | 415 kts | 42° |
| 2026-04-16 09:02 | 32.94758 | -63.87359 | 23152 ft | 418 kts | 42° |
| 2026-04-16 09:02 | 32.96847 | -63.84932 | 23684 ft | 421 kts | 42° |
| 2026-04-16 09:02 | 32.98952 | -63.82485 | 24156 ft | 424 kts | 42° |
| 2026-04-16 09:02 | 33.01062 | -63.80027 | 24633 ft | 426 kts | 42° |
| 2026-04-16 09:03 | 33.03164 | -63.77580 | 25092 ft | 428 kts | 42° |
| 2026-04-16 09:03 | 33.05329 | -63.75059 | 25545 ft | 431 kts | 42° |
| 2026-04-16 09:03 | 33.07474 | -63.72557 | 26000 ft | 433 kts | 43° |
| 2026-04-16 09:03 | 33.09644 | -63.70023 | 26442 ft | 436 kts | 43° |
| 2026-04-16 09:04 | 33.11812 | -63.67491 | 26867 ft | 439 kts | 43° |
| 2026-04-16 09:04 | 33.13995 | -63.64938 | 27294 ft | 441 kts | 43° |
| 2026-04-16 09:04 | 33.15450 | -63.63238 | 27570 ft | 443 kts | 43° |
| 2026-04-16 09:04 | 33.18401 | -63.59785 | 28138 ft | 446 kts | 43° |
| 2026-04-16 09:05 | 33.20597 | -63.57210 | 28551 ft | 449 kts | 43° |
| 2026-04-16 09:05 | 33.22103 | -63.55444 | 28838 ft | 451 kts | 43° |
| 2026-04-16 09:05 | 33.24348 | -63.52812 | 29239 ft | 453 kts | 43° |
| 2026-04-16 09:05 | 33.26598 | -63.50170 | 29647 ft | 456 kts | 43° |
| 2026-04-16 09:06 | 33.28867 | -63.47506 | 30075 ft | 458 kts | 43° |
| 2026-04-16 09:06 | 33.31144 | -63.44828 | 30446 ft | 460 kts | 43° |
| 2026-04-16 09:06 | 33.33425 | -63.42144 | 30776 ft | 463 kts | 43° |
| 2026-04-16 09:06 | 33.35727 | -63.39433 | 31095 ft | 465 kts | 43° |
| 2026-04-16 09:07 | 33.38032 | -63.36717 | 31592 ft | 463 kts | 43° |
| 2026-04-16 09:07 | 33.40318 | -63.34019 | 32150 ft | 460 kts | 43° |
| 2026-04-16 09:07 | 33.42587 | -63.31342 | 32653 ft | 458 kts | 43° |
| 2026-04-16 09:07 | 33.44854 | -63.28666 | 33167 ft | 456 kts | 43° |
| 2026-04-16 09:08 | 33.47110 | -63.25997 | 33685 ft | 454 kts | 43° |
| 2026-04-16 09:08 | 33.49348 | -63.23350 | 34241 ft | 452 kts | 42° |
| 2026-04-16 09:08 | 33.51582 | -63.20705 | 34708 ft | 450 kts | 42° |
| 2026-04-16 09:08 | 33.53807 | -63.18069 | 35178 ft | 448 kts | 42° |
| 2026-04-16 09:09 | 33.56016 | -63.15451 | 35645 ft | 447 kts | 42° |
| 2026-04-16 09:09 | 33.58221 | -63.12833 | 36138 ft | 445 kts | 42° |
| 2026-04-16 09:09 | 33.60428 | -63.10212 | 36548 ft | 445 kts | 42° |
| 2026-04-16 09:09 | 33.62625 | -63.07602 | 36996 ft | 443 kts | 42° |
| 2026-04-16 09:10 | 33.64803 | -63.05012 | 37231 ft | 447 kts | 42° |
| 2026-04-16 09:10 | 33.69315 | -62.99642 | 37239 ft | 465 kts | 42° |
| 2026-04-16 09:11 | 33.73987 | -62.94068 | 37234 ft | 482 kts | 42° |
| 2026-04-16 09:11 | 33.78813 | -62.88304 | 37241 ft | 497 kts | 42° |
| 2026-04-16 09:12 | 33.83783 | -62.82356 | 37246 ft | 509 kts | 43° |
| 2026-04-16 09:12 | 33.88800 | -62.76341 | 37237 ft | 513 kts | 43° |
| 2026-04-16 09:13 | 33.93877 | -62.70243 | 37236 ft | 512 kts | 43° |
| 2026-04-16 09:13 | 33.98918 | -62.64179 | 37235 ft | 511 kts | 43° |
| 2026-04-16 09:14 | 34.03913 | -62.58159 | 37230 ft | 511 kts | 43° |
| 2026-04-16 09:14 | 34.08935 | -62.52098 | 37236 ft | 511 kts | 43° |
| 2026-04-16 09:15 | 34.13967 | -62.46010 | 37237 ft | 514 kts | 43° |
| 2026-04-16 09:15 | 34.19027 | -62.39881 | 37236 ft | 515 kts | 43° |
| 2026-04-16 09:16 | 34.24071 | -62.33758 | 37242 ft | 513 kts | 44° |
| 2026-04-16 09:16 | 34.29107 | -62.27634 | 37234 ft | 513 kts | 44° |
| 2026-04-16 09:17 | 34.34131 | -62.21514 | 37242 ft | 513 kts | 44° |
| 2026-04-16 09:17 | 34.39024 | -62.15199 | 37222 ft | 517 kts | 51° |
| 2026-04-16 09:18 | 34.42512 | -62.07563 | 37222 ft | 521 kts | 68° |
| 2026-04-16 09:18 | 34.44697 | -61.99194 | 37244 ft | 522 kts | 72° |
| 2026-04-16 09:19 | 34.47073 | -61.90900 | 37236 ft | 520 kts | 68° |
| 2026-04-16 09:19 | 34.49480 | -61.82634 | 37238 ft | 521 kts | 71° |
| 2026-04-16 09:20 | 34.51802 | -61.74320 | 37233 ft | 521 kts | 69° |
| 2026-04-16 09:20 | 34.54217 | -61.66017 | 37234 ft | 522 kts | 71° |
| 2026-04-16 09:21 | 34.56526 | -61.57726 | 37238 ft | 522 kts | 70° |
| 2026-04-16 09:21 | 34.58913 | -61.49416 | 37234 ft | 522 kts | 70° |
| 2026-04-16 09:22 | 34.61239 | -61.41075 | 37233 ft | 522 kts | 70° |
| 2026-04-16 09:22 | 34.63603 | -61.32746 | 37235 ft | 522 kts | 71° |
| 2026-04-16 09:23 | 34.65936 | -61.24380 | 37236 ft | 523 kts | 71° |
| 2026-04-16 09:23 | 34.68280 | -61.16029 | 37237 ft | 522 kts | 71° |
| 2026-04-16 09:24 | 34.70605 | -61.07674 | 37238 ft | 522 kts | 71° |
| 2026-04-16 09:24 | 34.72934 | -60.99306 | 37238 ft | 522 kts | 72° |
| 2026-04-16 09:25 | 34.75245 | -60.90959 | 37237 ft | 521 kts | 72° |
| 2026-04-16 09:25 | 34.77556 | -60.82597 | 37240 ft | 521 kts | 72° |
| 2026-04-16 09:26 | 34.79861 | -60.74230 | 37238 ft | 522 kts | 72° |
| 2026-04-16 09:26 | 34.82150 | -60.65891 | 37228 ft | 519 kts | 72° |
| 2026-04-16 09:27 | 34.84428 | -60.57577 | 37243 ft | 518 kts | 72° |
| 2026-04-16 09:27 | 34.86703 | -60.49234 | 37237 ft | 520 kts | 72° |
| 2026-04-16 09:28 | 34.88986 | -60.40851 | 37244 ft | 522 kts | 72° |
| 2026-04-16 09:28 | 34.91260 | -60.32466 | 37255 ft | 520 kts | 72° |
| 2026-04-16 09:29 | 34.93507 | -60.24153 | 37239 ft | 520 kts | 72° |
| 2026-04-16 09:29 | 34.95764 | -60.15788 | 37248 ft | 519 kts | 72° |
| 2026-04-16 09:30 | 34.98020 | -60.07391 | 37245 ft | 517 kts | 72° |
| 2026-04-16 09:30 | 35.00367 | -59.99139 | 37233 ft | 520 kts | 66° |
| 2026-04-16 09:31 | 35.03746 | -59.91321 | 37254 ft | 521 kts | 60° |
| 2026-04-16 09:31 | 35.07108 | -59.83499 | 37248 ft | 519 kts | 63° |
| 2026-04-16 09:32 | 35.10430 | -59.75699 | 37245 ft | 517 kts | 61° |
| 2026-04-16 09:32 | 35.13804 | -59.67874 | 37244 ft | 525 kts | 62° |
| 2026-04-16 09:33 | 35.17162 | -59.59938 | 37251 ft | 526 kts | 62° |
| 2026-04-16 09:33 | 35.20555 | -59.52022 | 37248 ft | 524 kts | 62° |
| 2026-04-16 09:34 | 35.23889 | -59.44128 | 37249 ft | 523 kts | 61° |
| 2026-04-16 09:34 | 35.27268 | -59.36184 | 37248 ft | 529 kts | 62° |
| 2026-04-16 09:35 | 35.30641 | -59.28178 | 37246 ft | 529 kts | 61° |
| 2026-04-16 09:35 | 35.34013 | -59.20198 | 37258 ft | 527 kts | 61° |
| 2026-04-16 09:36 | 35.37365 | -59.12216 | 37248 ft | 527 kts | 61° |
| 2026-04-16 09:36 | 35.40727 | -59.04213 | 37249 ft | 530 kts | 61° |
| 2026-04-16 09:37 | 35.44087 | -58.96180 | 37258 ft | 529 kts | 61° |
| 2026-04-16 09:37 | 35.47445 | -58.88142 | 37251 ft | 529 kts | 61° |
| 2026-04-16 09:38 | 35.50770 | -58.80159 | 37258 ft | 530 kts | 61° |
| 2026-04-16 09:38 | 35.54124 | -58.72089 | 37252 ft | 532 kts | 61° |
| 2026-04-16 09:39 | 35.57482 | -58.63986 | 37257 ft | 532 kts | 61° |
| 2026-04-16 09:39 | 35.60858 | -58.55822 | 37250 ft | 532 kts | 61° |
| 2026-04-16 09:40 | 35.64187 | -58.47751 | 37244 ft | 535 kts | 60° |
| 2026-04-16 09:40 | 35.67548 | -58.39585 | 37252 ft | 535 kts | 60° |
| 2026-04-16 09:41 | 35.70897 | -58.31422 | 37255 ft | 533 kts | 60° |
| 2026-04-16 09:41 | 35.74233 | -58.23279 | 37249 ft | 533 kts | 60° |
| 2026-04-16 09:42 | 35.77569 | -58.15108 | 37255 ft | 535 kts | 60° |
| 2026-04-16 09:42 | 35.80911 | -58.06908 | 37254 ft | 535 kts | 60° |
| 2026-04-16 09:43 | 35.84236 | -57.98724 | 37252 ft | 534 kts | 60° |
| 2026-04-16 09:43 | 35.87556 | -57.90538 | 37250 ft | 534 kts | 59° |
| 2026-04-16 09:44 | 35.90874 | -57.82329 | 37249 ft | 534 kts | 59° |
| 2026-04-16 09:44 | 35.94185 | -57.74120 | 37248 ft | 535 kts | 59° |
| 2026-04-16 09:45 | 35.97496 | -57.65891 | 37248 ft | 535 kts | 59° |
| 2026-04-16 09:45 | 36.00790 | -57.57680 | 37250 ft | 532 kts | 59° |
| 2026-04-16 09:46 | 36.04066 | -57.49499 | 37248 ft | 531 kts | 59° |
| 2026-04-16 09:46 | 36.07339 | -57.41302 | 37247 ft | 532 kts | 60° |
| 2026-04-16 09:47 | 36.10602 | -57.33105 | 37256 ft | 531 kts | 59° |
| 2026-04-16 09:47 | 36.13866 | -57.24893 | 37242 ft | 532 kts | 59° |
| 2026-04-16 09:48 | 36.17126 | -57.16664 | 37244 ft | 533 kts | 59° |
| 2026-04-16 09:48 | 36.20362 | -57.08477 | 37250 ft | 532 kts | 59° |
| 2026-04-16 09:49 | 36.23625 | -57.00195 | 37242 ft | 531 kts | 59° |
| 2026-04-16 09:49 | 36.26842 | -56.92020 | 37244 ft | 532 kts | 59° |
| 2026-04-16 09:50 | 36.30077 | -56.83769 | 37248 ft | 533 kts | 59° |
| 2026-04-16 09:50 | 36.33303 | -56.75521 | 37249 ft | 531 kts | 59° |
| 2026-04-16 09:51 | 36.36523 | -56.67269 | 37244 ft | 531 kts | 59° |
| 2026-04-16 09:51 | 36.39739 | -56.59007 | 37244 ft | 532 kts | 59° |
| 2026-04-16 09:52 | 36.42948 | -56.50733 | 37250 ft | 531 kts | 59° |
| 2026-04-16 09:52 | 36.46151 | -56.42464 | 37250 ft | 531 kts | 60° |
| 2026-04-16 09:53 | 36.49347 | -56.34190 | 37244 ft | 532 kts | 60° |
| 2026-04-16 09:53 | 36.52009 | -56.27295 | 37244 ft | 531 kts | 59° |
| 2026-04-16 09:54 | 36.55183 | -56.18992 | 37239 ft | 531 kts | 60° |
| 2026-04-16 09:54 | 36.58377 | -56.10700 | 37244 ft | 531 kts | 60° |
| 2026-04-16 09:55 | 36.61545 | -56.02387 | 37244 ft | 532 kts | 60° |
| 2026-04-16 09:55 | 36.64723 | -55.94063 | 37245 ft | 533 kts | 60° |
| 2026-04-16 09:56 | 36.67896 | -55.85715 | 37244 ft | 533 kts | 60° |
| 2026-04-16 09:56 | 36.71064 | -55.77365 | 37248 ft | 534 kts | 60° |
| 2026-04-16 09:57 | 36.74224 | -55.69005 | 37241 ft | 532 kts | 60° |
| 2026-04-16 09:57 | 36.77368 | -55.60672 | 37238 ft | 530 kts | 60° |
| 2026-04-16 09:58 | 36.80506 | -55.52336 | 37250 ft | 531 kts | 60° |
| 2026-04-16 09:58 | 36.83639 | -55.43972 | 37239 ft | 533 kts | 60° |
| 2026-04-16 09:59 | 36.86785 | -55.35579 | 37244 ft | 531 kts | 60° |
| 2026-04-16 09:59 | 36.89910 | -55.27197 | 37248 ft | 533 kts | 61° |
| 2026-04-16 10:00 | 36.93023 | -55.18826 | 37230 ft | 531 kts | 60° |
| 2026-04-16 10:00 | 36.96117 | -55.10500 | 37229 ft | 532 kts | 60° |
| 2026-04-16 10:01 | 37.00540 | -54.97774 | 37222 ft | 536 kts | 69° |
| 2026-04-16 10:01 | 37.02510 | -54.88652 | 37238 ft | 541 kts | 71° |
| 2026-04-16 10:02 | 37.04551 | -54.79634 | 37232 ft | 541 kts | 70° |
| 2026-04-16 10:02 | 37.06549 | -54.70563 | 37233 ft | 540 kts | 71° |
| 2026-04-16 10:03 | 37.08563 | -54.61459 | 37229 ft | 538 kts | 70° |
| 2026-04-16 10:03 | 37.10534 | -54.52480 | 37229 ft | 539 kts | 71° |
| 2026-04-16 10:04 | 37.12526 | -54.43374 | 37235 ft | 539 kts | 70° |
| 2026-04-16 10:04 | 37.14492 | -54.34348 | 37237 ft | 540 kts | 70° |
| 2026-04-16 10:05 | 37.16463 | -54.25266 | 37232 ft | 541 kts | 70° |
| 2026-04-16 10:05 | 37.18447 | -54.16133 | 37222 ft | 542 kts | 70° |
| 2026-04-16 10:06 | 37.20410 | -54.06973 | 37240 ft | 543 kts | 70° |
| 2026-04-16 10:06 | 37.22381 | -53.97825 | 37224 ft | 544 kts | 70° |
| 2026-04-16 10:07 | 37.24339 | -53.88623 | 37231 ft | 543 kts | 70° |
| 2026-04-16 10:07 | 37.26283 | -53.79526 | 37234 ft | 545 kts | 70° |
| 2026-04-16 10:08 | 37.28214 | -53.70326 | 37227 ft | 545 kts | 70° |
| 2026-04-16 10:08 | 37.30170 | -53.61158 | 37224 ft | 542 kts | 70° |
| 2026-04-16 10:09 | 37.32086 | -53.51990 | 37221 ft | 544 kts | 71° |
| 2026-04-16 10:09 | 37.34008 | -53.42787 | 37219 ft | 546 kts | 70° |
| 2026-04-16 10:10 | 37.35934 | -53.33552 | 37232 ft | 548 kts | 71° |
| 2026-04-16 10:10 | 37.37855 | -53.24318 | 37234 ft | 544 kts | 70° |
| 2026-04-16 10:11 | 37.39751 | -53.15104 | 37216 ft | 545 kts | 71° |
| 2026-04-16 10:11 | 37.41658 | -53.05846 | 37217 ft | 548 kts | 71° |
| 2026-04-16 10:12 | 37.43560 | -52.96569 | 37209 ft | 548 kts | 71° |
| 2026-04-16 10:12 | 37.45451 | -52.87298 | 37210 ft | 547 kts | 71° |
| 2026-04-16 10:13 | 37.47335 | -52.78036 | 37216 ft | 547 kts | 71° |
| 2026-04-16 10:13 | 37.49203 | -52.68736 | 37220 ft | 547 kts | 71° |
| 2026-04-16 10:14 | 37.51079 | -52.59458 | 37217 ft | 548 kts | 71° |
| 2026-04-16 10:14 | 37.52945 | -52.50143 | 37207 ft | 549 kts | 71° |
| 2026-04-16 10:15 | 37.54808 | -52.40808 | 37202 ft | 549 kts | 71° |
| 2026-04-16 10:15 | 37.56658 | -52.31457 | 37212 ft | 550 kts | 71° |
| 2026-04-16 10:16 | 37.58505 | -52.22120 | 37214 ft | 549 kts | 71° |
| 2026-04-16 10:16 | 37.60360 | -52.12751 | 37211 ft | 552 kts | 71° |
| 2026-04-16 10:17 | 37.62190 | -52.03331 | 37216 ft | 551 kts | 71° |
| 2026-04-16 10:17 | 37.64030 | -51.93950 | 37198 ft | 552 kts | 71° |
| 2026-04-16 10:18 | 37.65856 | -51.84549 | 37191 ft | 553 kts | 71° |
| 2026-04-16 10:18 | 37.67671 | -51.75105 | 37196 ft | 553 kts | 71° |
| 2026-04-16 10:19 | 37.69482 | -51.65761 | 37200 ft | 550 kts | 71° |
| 2026-04-16 10:19 | 37.71290 | -51.56272 | 37198 ft | 553 kts | 71° |
| 2026-04-16 10:20 | 37.73099 | -51.46811 | 37208 ft | 554 kts | 71° |
| 2026-04-16 10:20 | 37.74881 | -51.37404 | 37198 ft | 556 kts | 71° |
| 2026-04-16 10:21 | 37.76680 | -51.27885 | 37195 ft | 557 kts | 71° |
| 2026-04-16 10:21 | 37.78459 | -51.18383 | 37189 ft | 553 kts | 71° |
| 2026-04-16 10:22 | 37.80249 | -51.08908 | 37196 ft | 555 kts | 71° |
| 2026-04-16 10:22 | 37.82000 | -50.99407 | 37190 ft | 555 kts | 71° |
| 2026-04-16 10:23 | 37.83775 | -50.89875 | 37184 ft | 557 kts | 71° |
| 2026-04-16 10:23 | 37.85526 | -50.80333 | 37171 ft | 557 kts | 71° |
| 2026-04-16 10:24 | 37.87296 | -50.70764 | 37197 ft | 558 kts | 71° |
| 2026-04-16 10:24 | 37.89023 | -50.61214 | 37198 ft | 556 kts | 71° |
| 2026-04-16 10:25 | 37.90771 | -50.51645 | 37197 ft | 560 kts | 72° |
| 2026-04-16 10:25 | 37.92498 | -50.42047 | 37175 ft | 560 kts | 72° |
| 2026-04-16 10:26 | 37.94231 | -50.32442 | 37201 ft | 559 kts | 72° |
| 2026-04-16 10:26 | 37.95953 | -50.22815 | 37176 ft | 561 kts | 72° |
| 2026-04-16 10:27 | 37.97668 | -50.13182 | 37184 ft | 561 kts | 72° |
| 2026-04-16 10:27 | 37.99378 | -50.03520 | 37170 ft | 561 kts | 72° |
| 2026-04-16 10:28 | 38.01321 | -49.93986 | 37183 ft | 558 kts | 68° |
| 2026-04-16 10:28 | 38.03488 | -49.84516 | 37182 ft | 562 kts | 69° |
| 2026-04-16 10:29 | 38.05562 | -49.74972 | 37183 ft | 560 kts | 69° |
| 2026-04-16 10:29 | 38.07698 | -49.65470 | 37171 ft | 560 kts | 68° |
| 2026-04-16 10:30 | 38.09779 | -49.55932 | 37169 ft | 561 kts | 69° |
| 2026-04-16 10:30 | 38.11873 | -49.46449 | 37166 ft | 561 kts | 69° |
| 2026-04-16 10:31 | 38.13953 | -49.36898 | 37187 ft | 561 kts | 69° |
| 2026-04-16 10:31 | 38.16042 | -49.27319 | 37173 ft | 563 kts | 69° |
| 2026-04-16 10:32 | 38.18116 | -49.17727 | 37171 ft | 563 kts | 69° |
| 2026-04-16 10:32 | 38.20188 | -49.08132 | 37171 ft | 563 kts | 69° |
| 2026-04-16 10:33 | 38.22255 | -48.98501 | 37168 ft | 565 kts | 69° |
| 2026-04-16 10:33 | 38.24314 | -48.88868 | 37161 ft | 564 kts | 69° |
| 2026-04-16 10:34 | 38.26368 | -48.79226 | 37157 ft | 564 kts | 69° |
| 2026-04-16 10:34 | 38.28412 | -48.69578 | 37151 ft | 566 kts | 69° |
| 2026-04-16 10:35 | 38.30456 | -48.59892 | 37158 ft | 567 kts | 69° |
| 2026-04-16 10:35 | 38.32496 | -48.50180 | 37154 ft | 567 kts | 69° |
| 2026-04-16 10:36 | 38.34525 | -48.40478 | 37155 ft | 568 kts | 69° |
| 2026-04-16 10:36 | 38.36550 | -48.30753 | 37157 ft | 568 kts | 69° |
| 2026-04-16 10:37 | 38.38570 | -48.21000 | 37157 ft | 569 kts | 69° |
| 2026-04-16 10:37 | 38.40570 | -48.11314 | 37156 ft | 569 kts | 69° |
| 2026-04-16 10:38 | 38.42586 | -48.01494 | 37154 ft | 569 kts | 69° |
| 2026-04-16 10:38 | 38.44566 | -47.91798 | 37156 ft | 569 kts | 69° |
| 2026-04-16 10:39 | 38.46556 | -47.82035 | 37141 ft | 569 kts | 69° |
| 2026-04-16 10:39 | 38.48529 | -47.72275 | 37144 ft | 568 kts | 69° |
| 2026-04-16 10:40 | 38.50182 | -47.64087 | 37136 ft | 567 kts | 70° |
| 2026-04-16 10:40 | 38.52138 | -47.54338 | 37134 ft | 567 kts | 70° |
| 2026-04-16 10:41 | 38.54095 | -47.44557 | 37127 ft | 569 kts | 70° |
| 2026-04-16 10:41 | 38.56045 | -47.34741 | 37134 ft | 570 kts | 70° |
| 2026-04-16 10:42 | 38.57989 | -47.24932 | 37135 ft | 569 kts | 70° |
| 2026-04-16 10:42 | 38.59924 | -47.15108 | 37145 ft | 572 kts | 70° |
| 2026-04-16 10:43 | 38.61862 | -47.05225 | 37145 ft | 573 kts | 70° |
| 2026-04-16 10:43 | 38.63789 | -46.95346 | 37135 ft | 572 kts | 70° |
| 2026-04-16 10:44 | 38.65707 | -46.85479 | 37144 ft | 572 kts | 70° |
| 2026-04-16 10:44 | 38.67619 | -46.75575 | 37146 ft | 573 kts | 70° |
| 2026-04-16 10:45 | 38.69512 | -46.65738 | 37151 ft | 573 kts | 70° |
| 2026-04-16 10:45 | 38.71407 | -46.55835 | 37151 ft | 574 kts | 70° |
| 2026-04-16 10:46 | 38.73294 | -46.45920 | 37153 ft | 573 kts | 70° |
| 2026-04-16 10:46 | 38.75177 | -46.35986 | 37156 ft | 573 kts | 70° |
| 2026-04-16 10:47 | 38.77048 | -46.26065 | 37167 ft | 573 kts | 70° |
| 2026-04-16 10:47 | 38.78910 | -46.16137 | 37164 ft | 573 kts | 70° |
| 2026-04-16 10:48 | 38.80761 | -46.06218 | 37168 ft | 573 kts | 70° |
| 2026-04-16 10:48 | 38.82604 | -45.96292 | 37202 ft | 573 kts | 70° |
| 2026-04-16 10:49 | 38.84443 | -45.86340 | 37164 ft | 573 kts | 70° |
| 2026-04-16 10:49 | 38.86274 | -45.76375 | 37169 ft | 573 kts | 70° |
| 2026-04-16 10:50 | 38.88096 | -45.66417 | 37174 ft | 573 kts | 70° |
| 2026-04-16 10:50 | 38.89907 | -45.56463 | 37182 ft | 574 kts | 70° |
| 2026-04-16 10:51 | 38.91712 | -45.46492 | 37184 ft | 574 kts | 71° |
| 2026-04-16 10:51 | 38.93512 | -45.36491 | 37188 ft | 574 kts | 71° |
| 2026-04-16 10:52 | 38.95292 | -45.26554 | 37181 ft | 575 kts | 71° |
| 2026-04-16 10:52 | 38.97076 | -45.16531 | 37182 ft | 576 kts | 71° |
| 2026-04-16 10:53 | 38.98855 | -45.06503 | 37185 ft | 576 kts | 71° |
| 2026-04-16 10:53 | 39.00750 | -44.96518 | 37177 ft | 572 kts | 68° |
| 2026-04-16 10:54 | 39.02997 | -44.86718 | 37181 ft | 572 kts | 67° |
| 2026-04-16 10:54 | 39.05158 | -44.76858 | 37182 ft | 573 kts | 68° |
| 2026-04-16 10:55 | 39.07356 | -44.67027 | 37199 ft | 573 kts | 67° |
| 2026-04-16 10:55 | 39.09530 | -44.57149 | 37199 ft | 573 kts | 68° |
| 2026-04-16 10:56 | 39.11697 | -44.47280 | 37201 ft | 573 kts | 68° |
| 2026-04-16 10:56 | 39.13866 | -44.37389 | 37195 ft | 574 kts | 68° |
| 2026-04-16 10:57 | 39.16013 | -44.27503 | 37188 ft | 573 kts | 68° |
| 2026-04-16 10:57 | 39.18162 | -44.17616 | 37196 ft | 573 kts | 68° |
| 2026-04-16 10:58 | 39.20293 | -44.07724 | 37202 ft | 572 kts | 68° |
| 2026-04-16 10:58 | 39.22417 | -43.97850 | 37201 ft | 570 kts | 68° |
| 2026-04-16 10:59 | 39.24526 | -43.87990 | 37198 ft | 571 kts | 68° |
| 2026-04-16 10:59 | 39.26632 | -43.78098 | 37285 ft | 571 kts | 68° |
| 2026-04-16 11:00 | 39.27652 | -43.73250 | 38468 ft | 550 kts | 68° |
| 2026-04-16 11:00 | 39.28645 | -43.68533 | 39147 ft | 540 kts | 68° |
| 2026-04-16 11:00 | 39.30666 | -43.59091 | 39194 ft | 553 kts | 68° |
| 2026-04-16 11:01 | 39.32691 | -43.49358 | 39195 ft | 567 kts | 69° |
| 2026-04-16 11:01 | 39.34753 | -43.39530 | 39204 ft | 565 kts | 69° |
| 2026-04-16 11:02 | 39.36786 | -43.29748 | 39200 ft | 563 kts | 69° |
| 2026-04-16 11:02 | 39.38816 | -43.19969 | 39198 ft | 564 kts | 69° |
| 2026-04-16 11:03 | 39.40833 | -43.10178 | 39204 ft | 564 kts | 69° |
| 2026-04-16 11:04 | 39.43844 | -42.95500 | 39200 ft | 563 kts | 69° |
| 2026-04-16 11:04 | 39.45826 | -42.85770 | 39220 ft | 563 kts | 70° |
| 2026-04-16 11:05 | 39.47815 | -42.75975 | 39204 ft | 563 kts | 70° |
| 2026-04-16 11:05 | 39.49791 | -42.66183 | 39203 ft | 562 kts | 70° |
| 2026-04-16 11:06 | 39.51763 | -42.56375 | 39204 ft | 563 kts | 70° |
| 2026-04-16 11:06 | 39.53726 | -42.46565 | 39196 ft | 562 kts | 70° |
| 2026-04-16 11:07 | 39.55675 | -42.36770 | 39196 ft | 561 kts | 70° |
| 2026-04-16 11:07 | 39.57620 | -42.26961 | 39197 ft | 562 kts | 70° |
| 2026-04-16 11:08 | 39.59553 | -42.17152 | 39205 ft | 562 kts | 71° |
| 2026-04-16 11:08 | 39.61480 | -42.07339 | 39207 ft | 562 kts | 71° |
| 2026-04-16 11:09 | 39.63401 | -41.97499 | 39204 ft | 562 kts | 71° |
| 2026-04-16 11:09 | 39.65311 | -41.87668 | 39199 ft | 562 kts | 71° |
| 2026-04-16 11:10 | 39.67217 | -41.77828 | 39202 ft | 562 kts | 71° |
| 2026-04-16 11:10 | 39.69107 | -41.67984 | 39197 ft | 562 kts | 71° |
| 2026-04-16 11:11 | 39.70984 | -41.58193 | 39201 ft | 562 kts | 71° |
| 2026-04-16 11:11 | 39.72859 | -41.48346 | 39197 ft | 562 kts | 72° |
| 2026-04-16 11:12 | 39.74730 | -41.38491 | 39200 ft | 562 kts | 72° |
| 2026-04-16 11:12 | 39.76591 | -41.28614 | 39209 ft | 563 kts | 72° |
| 2026-04-16 11:13 | 39.78447 | -41.18731 | 39195 ft | 563 kts | 72° |
| 2026-04-16 11:13 | 39.80292 | -41.08842 | 39192 ft | 563 kts | 72° |
| 2026-04-16 11:14 | 39.82136 | -40.98935 | 39203 ft | 563 kts | 72° |
| 2026-04-16 11:14 | 39.83965 | -40.89027 | 39194 ft | 564 kts | 72° |
| 2026-04-16 11:15 | 39.85791 | -40.79108 | 39183 ft | 564 kts | 72° |
| 2026-04-16 11:15 | 39.87606 | -40.69178 | 39182 ft | 563 kts | 73° |
| 2026-04-16 11:16 | 39.89413 | -40.59259 | 39197 ft | 564 kts | 73° |
| 2026-04-16 11:16 | 39.91213 | -40.49303 | 39198 ft | 564 kts | 73° |
| 2026-04-16 11:17 | 39.93006 | -40.39357 | 39196 ft | 564 kts | 73° |
| 2026-04-16 11:17 | 39.94790 | -40.29398 | 39197 ft | 565 kts | 73° |
| 2026-04-16 11:18 | 39.96571 | -40.19406 | 39198 ft | 566 kts | 73° |
| 2026-04-16 11:18 | 39.98343 | -40.09413 | 39196 ft | 566 kts | 73° |
| 2026-04-16 11:19 | 39.99959 | -39.99446 | 39184 ft | 571 kts | 79° |
| 2026-04-16 11:19 | 40.00257 | -39.89040 | 39187 ft | 575 kts | 88° |
| 2026-04-16 11:20 | 40.00407 | -39.78633 | 39198 ft | 574 kts | 84° |
| 2026-04-16 11:20 | 40.00679 | -39.68234 | 39202 ft | 575 kts | 87° |
| 2026-04-16 11:21 | 40.00797 | -39.57801 | 39192 ft | 575 kts | 86° |
| 2026-04-16 11:21 | 40.01044 | -39.47364 | 39194 ft | 577 kts | 86° |
| 2026-04-16 11:22 | 40.01161 | -39.36917 | 39182 ft | 575 kts | 86° |
| 2026-04-16 11:22 | 40.01367 | -39.26481 | 39185 ft | 575 kts | 86° |
| 2026-04-16 11:23 | 40.01490 | -39.16039 | 39193 ft | 576 kts | 87° |
| 2026-04-16 11:23 | 40.01656 | -39.05581 | 39191 ft | 577 kts | 87° |
| 2026-04-16 11:24 | 40.01779 | -38.95113 | 39195 ft | 577 kts | 87° |
| 2026-04-16 11:24 | 40.01911 | -38.84637 | 39186 ft | 576 kts | 87° |
| 2026-04-16 11:25 | 40.02024 | -38.74193 | 39198 ft | 576 kts | 88° |
| 2026-04-16 11:25 | 40.02132 | -38.63730 | 39198 ft | 578 kts | 88° |
| 2026-04-16 11:26 | 40.02232 | -38.53245 | 39190 ft | 577 kts | 88° |
| 2026-04-16 11:26 | 40.02302 | -38.44552 | 39191 ft | 577 kts | 88° |
| 2026-04-16 11:27 | 40.02386 | -38.34081 | 39181 ft | 577 kts | 88° |
| 2026-04-16 11:27 | 40.02455 | -38.23612 | 39183 ft | 576 kts | 88° |
| 2026-04-16 11:28 | 40.02517 | -38.13162 | 39187 ft | 577 kts | 88° |
| 2026-04-16 11:28 | 40.02569 | -38.02688 | 39199 ft | 577 kts | 88° |
| 2026-04-16 11:29 | 40.02612 | -37.92200 | 39190 ft | 579 kts | 89° |
| 2026-04-16 11:29 | 40.02645 | -37.81692 | 39192 ft | 579 kts | 89° |
| 2026-04-16 11:30 | 40.02668 | -37.71193 | 39193 ft | 579 kts | 89° |
| 2026-04-16 11:30 | 40.02684 | -37.60673 | 39210 ft | 579 kts | 89° |
| 2026-04-16 11:31 | 40.02687 | -37.50159 | 39191 ft | 580 kts | 89° |
| 2026-04-16 11:31 | 40.02684 | -37.39630 | 39191 ft | 580 kts | 89° |
| 2026-04-16 11:32 | 40.02669 | -37.29181 | 39178 ft | 579 kts | 89° |
| 2026-04-16 11:32 | 40.02646 | -37.18682 | 39192 ft | 579 kts | 90° |
| 2026-04-16 11:33 | 40.02613 | -37.08158 | 39183 ft | 581 kts | 90° |
| 2026-04-16 11:33 | 40.02570 | -36.97605 | 39184 ft | 581 kts | 90° |
| 2026-04-16 11:34 | 40.02517 | -36.87057 | 39186 ft | 581 kts | 90° |
| 2026-04-16 11:34 | 40.02456 | -36.76517 | 39181 ft | 581 kts | 90° |
| 2026-04-16 11:35 | 40.02384 | -36.65958 | 39176 ft | 583 kts | 90° |
| 2026-04-16 11:35 | 40.02304 | -36.55391 | 39179 ft | 583 kts | 90° |
| 2026-04-16 11:36 | 40.02213 | -36.44810 | 39180 ft | 583 kts | 90° |
| 2026-04-16 11:36 | 40.02112 | -36.34241 | 39178 ft | 584 kts | 91° |
| 2026-04-16 11:37 | 40.02002 | -36.23625 | 39165 ft | 585 kts | 91° |
| 2026-04-16 11:37 | 40.01882 | -36.13022 | 39165 ft | 585 kts | 91° |
| 2026-04-16 11:38 | 40.01752 | -36.02425 | 39159 ft | 584 kts | 91° |
| 2026-04-16 11:38 | 40.01613 | -35.91815 | 39170 ft | 585 kts | 91° |
| 2026-04-16 11:39 | 40.01464 | -35.81214 | 39174 ft | 585 kts | 91° |
| 2026-04-16 11:39 | 40.01305 | -35.70678 | 39162 ft | 585 kts | 91° |
| 2026-04-16 11:40 | 40.01138 | -35.60080 | 39156 ft | 584 kts | 91° |
| 2026-04-16 11:40 | 40.00960 | -35.49487 | 39167 ft | 585 kts | 91° |
| 2026-04-16 11:41 | 40.00772 | -35.38885 | 39162 ft | 585 kts | 91° |
| 2026-04-16 11:41 | 40.00575 | -35.28265 | 39163 ft | 585 kts | 92° |
| 2026-04-16 11:42 | 40.00368 | -35.17672 | 39163 ft | 584 kts | 92° |
| 2026-04-16 11:42 | 40.00152 | -35.07096 | 39163 ft | 583 kts | 92° |
| 2026-04-16 11:43 | 39.99638 | -34.96563 | 39147 ft | 581 kts | 100° |
| 2026-04-16 11:43 | 39.98197 | -34.86196 | 39153 ft | 581 kts | 102° |
| 2026-04-16 11:44 | 39.96927 | -34.75784 | 39129 ft | 582 kts | 100° |
| 2026-04-16 11:44 | 39.95549 | -34.65414 | 39153 ft | 579 kts | 102° |
| 2026-04-16 11:45 | 39.94211 | -34.55088 | 39145 ft | 578 kts | 101° |
| 2026-04-16 11:45 | 39.92860 | -34.44762 | 39145 ft | 579 kts | 102° |
| 2026-04-16 11:46 | 39.91480 | -34.34428 | 39129 ft | 579 kts | 102° |
| 2026-04-16 11:46 | 39.90119 | -34.24110 | 39136 ft | 576 kts | 102° |
| 2026-04-16 11:47 | 39.88727 | -34.13843 | 39133 ft | 576 kts | 102° |
| 2026-04-16 11:47 | 39.87349 | -34.03554 | 39134 ft | 577 kts | 102° |
| 2026-04-16 11:48 | 39.85948 | -33.93343 | 39126 ft | 576 kts | 102° |
| 2026-04-16 11:48 | 39.84545 | -33.83040 | 39130 ft | 574 kts | 102° |
| 2026-04-16 11:49 | 39.83138 | -33.72891 | 39139 ft | 574 kts | 103° |
| 2026-04-16 11:49 | 39.81720 | -33.62660 | 39140 ft | 574 kts | 103° |
| 2026-04-16 11:50 | 39.80291 | -33.52441 | 39120 ft | 574 kts | 103° |
| 2026-04-16 11:50 | 39.78856 | -33.42247 | 39137 ft | 573 kts | 103° |
| 2026-04-16 11:51 | 39.77410 | -33.32048 | 39139 ft | 573 kts | 103° |
| 2026-04-16 11:51 | 39.75957 | -33.21859 | 39138 ft | 574 kts | 103° |
| 2026-04-16 11:52 | 39.74492 | -33.11654 | 39130 ft | 574 kts | 103° |
| 2026-04-16 11:52 | 39.73020 | -33.01465 | 39129 ft | 574 kts | 103° |
| 2026-04-16 11:53 | 39.71539 | -32.91287 | 39128 ft | 574 kts | 103° |
| 2026-04-16 11:53 | 39.70048 | -32.81099 | 39131 ft | 574 kts | 103° |
| 2026-04-16 11:54 | 39.68549 | -32.70927 | 39123 ft | 573 kts | 103° |
| 2026-04-16 11:54 | 39.67045 | -32.60776 | 39128 ft | 573 kts | 104° |
| 2026-04-16 11:55 | 39.65529 | -32.50619 | 39127 ft | 573 kts | 104° |
| 2026-04-16 11:55 | 39.64007 | -32.40482 | 39126 ft | 573 kts | 104° |
| 2026-04-16 11:56 | 39.62476 | -32.30346 | 39119 ft | 573 kts | 104° |
| 2026-04-16 11:56 | 39.60933 | -32.20200 | 39121 ft | 573 kts | 104° |
| 2026-04-16 11:57 | 39.59385 | -32.10067 | 39120 ft | 573 kts | 104° |
| 2026-04-16 11:57 | 39.57826 | -31.99944 | 39121 ft | 573 kts | 104° |
| 2026-04-16 11:58 | 39.56256 | -31.89807 | 39110 ft | 573 kts | 104° |
| 2026-04-16 11:58 | 39.54684 | -31.79707 | 39123 ft | 572 kts | 104° |
| 2026-04-16 11:59 | 39.53099 | -31.69601 | 39124 ft | 572 kts | 104° |
| 2026-04-16 11:59 | 39.51509 | -31.59507 | 39123 ft | 572 kts | 104° |
| 2026-04-16 12:00 | 39.49906 | -31.49398 | 39114 ft | 573 kts | 104° |
| 2026-04-16 12:00 | 39.48299 | -31.39322 | 39106 ft | 572 kts | 104° |
| 2026-04-16 12:01 | 39.46678 | -31.29220 | 39103 ft | 573 kts | 104° |
| 2026-04-16 12:01 | 39.45092 | -31.19185 | 39093 ft | 573 kts | 103° |
| 2026-04-16 12:02 | 39.42879 | -31.03996 | 39092 ft | 572 kts | 103° |
| 2026-04-16 12:02 | 39.41375 | -30.93889 | 39105 ft | 574 kts | 103° |
| 2026-04-16 12:03 | 39.39919 | -30.83717 | 39127 ft | 575 kts | 103° |
| 2026-04-16 12:03 | 39.38418 | -30.73588 | 39126 ft | 574 kts | 103° |
| 2026-04-16 12:04 | 39.36933 | -30.63463 | 39129 ft | 574 kts | 103° |
| 2026-04-16 12:04 | 39.35423 | -30.53319 | 39123 ft | 574 kts | 103° |
| 2026-04-16 12:05 | 39.33912 | -30.43201 | 39122 ft | 574 kts | 103° |
| 2026-04-16 12:05 | 39.32392 | -30.33085 | 39124 ft | 574 kts | 103° |
| 2026-04-16 12:06 | 39.30858 | -30.22953 | 39127 ft | 574 kts | 103° |
| 2026-04-16 12:06 | 39.29322 | -30.12845 | 39126 ft | 573 kts | 104° |
| 2026-04-16 12:07 | 39.27773 | -30.02747 | 39128 ft | 575 kts | 104° |
| 2026-04-16 12:07 | 39.26216 | -29.92633 | 39132 ft | 574 kts | 104° |
| 2026-04-16 12:08 | 39.24648 | -29.82522 | 39125 ft | 574 kts | 104° |
| 2026-04-16 12:08 | 39.23075 | -29.72430 | 39128 ft | 574 kts | 104° |
| 2026-04-16 12:09 | 39.21504 | -29.62422 | 39122 ft | 572 kts | 104° |
| 2026-04-16 12:09 | 39.19919 | -29.52369 | 39123 ft | 572 kts | 104° |
| 2026-04-16 12:10 | 39.18320 | -29.42294 | 39124 ft | 573 kts | 104° |
| 2026-04-16 12:10 | 39.16714 | -29.32237 | 39122 ft | 573 kts | 104° |
| 2026-04-16 12:11 | 39.15099 | -29.22181 | 39115 ft | 572 kts | 104° |
| 2026-04-16 12:11 | 39.13481 | -29.12166 | 39124 ft | 571 kts | 104° |
| 2026-04-16 12:12 | 39.11856 | -29.02161 | 39128 ft | 571 kts | 104° |
| 2026-04-16 12:12 | 39.10219 | -28.92139 | 39132 ft | 572 kts | 104° |
| 2026-04-16 12:13 | 39.08572 | -28.82115 | 39138 ft | 573 kts | 104° |
| 2026-04-16 12:13 | 39.06916 | -28.72089 | 39133 ft | 572 kts | 104° |
| 2026-04-16 12:14 | 39.05252 | -28.62082 | 39137 ft | 573 kts | 104° |
| 2026-04-16 12:14 | 39.03579 | -28.52070 | 39143 ft | 573 kts | 104° |
| 2026-04-16 12:15 | 39.01896 | -28.42050 | 39136 ft | 572 kts | 104° |
| 2026-04-16 12:15 | 39.00493 | -28.33750 | 39136 ft | 573 kts | 104° |
| 2026-04-16 12:16 | 38.98798 | -28.23754 | 39134 ft | 571 kts | 104° |
| 2026-04-16 12:16 | 38.97097 | -28.13801 | 39133 ft | 571 kts | 104° |
| 2026-04-16 12:17 | 38.95387 | -28.03832 | 39144 ft | 572 kts | 104° |
| 2026-04-16 12:17 | 38.93663 | -27.93843 | 39144 ft | 573 kts | 104° |
| 2026-04-16 12:18 | 38.91934 | -27.83876 | 39129 ft | 572 kts | 104° |
| 2026-04-16 12:18 | 38.90198 | -27.73924 | 39143 ft | 570 kts | 104° |
| 2026-04-16 12:19 | 38.88458 | -27.64004 | 39143 ft | 570 kts | 104° |
| 2026-04-16 12:19 | 38.87006 | -27.55759 | 39147 ft | 570 kts | 104° |